sensor_id;sensor_type;location;lat;lon;timestamp;P1;durP1;ratioP1;P2;durP2;ratioP2
2225;SDS011;1119;48.288;8.726;2024-02-28T00:02:07;20.97;;;3.87;;
2225;SDS011;1119;48.288;8.726;2024-02-28T00:04:35;20.87;;;4.17;;
2225;SDS011;1119;48.288;8.726;2024-02-28T00:07:02;20.87;;;3.90;;
2225;SDS011;1119;48.288;8.726;2024-02-28T00:09:29;20.90;;;3.97;;
2225;SDS011;1119;48.288;8.726;2024-02-28T00:11:56;20.73;;;3.83;;
2225;SDS011;1119;48.288;8.726;2024-02-28T00:14:24;20.70;;;3.83;;
2225;SDS011;1119;48.288;8.726;2024-02-28T00:16:53;20.90;;;4.00;;
2225;SDS011;1119;48.288;8.726;2024-02-28T00:19:20;20.80;;;4.03;;
2225;SDS011;1119;48.288;8.726;2024-02-28T00:21:47;20.77;;;3.60;;
2225;SDS011;1119;48.288;8.726;2024-02-28T00:24:15;21.03;;;4.40;;
2225;SDS011;1119;48.288;8.726;2024-02-28T00:26:42;20.87;;;3.93;;
2225;SDS011;1119;48.288;8.726;2024-02-28T00:29:10;21.00;;;4.13;;
2225;SDS011;1119;48.288;8.726;2024-02-28T00:31:37;20.93;;;4.17;;
2225;SDS011;1119;48.288;8.726;2024-02-28T00:34:06;21.03;;;4.43;;
2225;SDS011;1119;48.288;8.726;2024-02-28T00:36:34;21.10;;;4.60;;
2225;SDS011;1119;48.288;8.726;2024-02-28T00:39:01;21.07;;;4.50;;
2225;SDS011;1119;48.288;8.726;2024-02-28T00:41:29;21.10;;;4.90;;
2225;SDS011;1119;48.288;8.726;2024-02-28T00:43:56;21.10;;;4.97;;
2225;SDS011;1119;48.288;8.726;2024-02-28T00:46:23;21.17;;;4.70;;
2225;SDS011;1119;48.288;8.726;2024-02-28T00:48:51;21.23;;;5.10;;
2225;SDS011;1119;48.288;8.726;2024-02-28T00:51:19;20.90;;;3.93;;
2225;SDS011;1119;48.288;8.726;2024-02-28T00:53:46;21.10;;;4.50;;
2225;SDS011;1119;48.288;8.726;2024-02-28T00:56:14;21.00;;;5.10;;
2225;SDS011;1119;48.288;8.726;2024-02-28T00:58:43;21.03;;;4.43;;
2225;SDS011;1119;48.288;8.726;2024-02-28T01:01:11;21.10;;;4.90;;
2225;SDS011;1119;48.288;8.726;2024-02-28T01:03:39;21.23;;;4.70;;
2225;SDS011;1119;48.288;8.726;2024-02-28T01:06:06;21.20;;;4.80;;
2225;SDS011;1119;48.288;8.726;2024-02-28T01:08:34;21.10;;;4.30;;
2225;SDS011;1119;48.288;8.726;2024-02-28T01:11:02;21.33;;;5.00;;
2225;SDS011;1119;48.288;8.726;2024-02-28T01:13:29;21.23;;;5.00;;
2225;SDS011;1119;48.288;8.726;2024-02-28T01:15:56;21.27;;;5.17;;
2225;SDS011;1119;48.288;8.726;2024-02-28T01:18:25;21.30;;;5.40;;
2225;SDS011;1119;48.288;8.726;2024-02-28T01:20:55;21.10;;;4.83;;
2225;SDS011;1119;48.288;8.726;2024-02-28T01:23:23;21.33;;;5.23;;
2225;SDS011;1119;48.288;8.726;2024-02-28T01:25:51;21.23;;;5.10;;
2225;SDS011;1119;48.288;8.726;2024-02-28T01:28:19;21.03;;;4.10;;
2225;SDS011;1119;48.288;8.726;2024-02-28T01:30:46;21.07;;;4.30;;
2225;SDS011;1119;48.288;8.726;2024-02-28T01:33:14;21.03;;;4.23;;
2225;SDS011;1119;48.288;8.726;2024-02-28T01:35:42;20.97;;;4.10;;
2225;SDS011;1119;48.288;8.726;2024-02-28T01:38:09;20.90;;;4.10;;
2225;SDS011;1119;48.288;8.726;2024-02-28T01:40:36;21.00;;;4.30;;
2225;SDS011;1119;48.288;8.726;2024-02-28T01:43:06;20.90;;;3.90;;
2225;SDS011;1119;48.288;8.726;2024-02-28T01:45:34;20.90;;;4.03;;
2225;SDS011;1119;48.288;8.726;2024-02-28T01:48:02;20.87;;;3.60;;
2225;SDS011;1119;48.288;8.726;2024-02-28T01:50:30;20.97;;;3.93;;
2225;SDS011;1119;48.288;8.726;2024-02-28T01:52:58;20.97;;;4.20;;
2225;SDS011;1119;48.288;8.726;2024-02-28T01:55:26;20.90;;;4.17;;
2225;SDS011;1119;48.288;8.726;2024-02-28T01:57:56;21.00;;;4.07;;
2225;SDS011;1119;48.288;8.726;2024-02-28T02:00:25;20.73;;;3.17;;
2225;SDS011;1119;48.288;8.726;2024-02-28T02:02:53;20.87;;;3.93;;
2225;SDS011;1119;48.288;8.726;2024-02-28T02:05:21;20.60;;;3.17;;
2225;SDS011;1119;48.288;8.726;2024-02-28T02:07:48;20.80;;;3.60;;
2225;SDS011;1119;48.288;8.726;2024-02-28T02:10:16;20.80;;;3.60;;
2225;SDS011;1119;48.288;8.726;2024-02-28T02:12:43;20.70;;;3.30;;
2225;SDS011;1119;48.288;8.726;2024-02-28T02:15:10;20.50;;;2.90;;
2225;SDS011;1119;48.288;8.726;2024-02-28T02:17:39;20.67;;;3.03;;
2225;SDS011;1119;48.288;8.726;2024-02-28T02:20:07;20.63;;;3.10;;
2225;SDS011;1119;48.288;8.726;2024-02-28T02:22:39;20.67;;;2.70;;
2225;SDS011;1119;48.288;8.726;2024-02-28T02:25:07;20.70;;;3.20;;
2225;SDS011;1119;48.288;8.726;2024-02-28T02:27:35;20.57;;;3.13;;
2225;SDS011;1119;48.288;8.726;2024-02-28T02:30:03;20.63;;;3.00;;
2225;SDS011;1119;48.288;8.726;2024-02-28T02:32:31;20.73;;;3.40;;
2225;SDS011;1119;48.288;8.726;2024-02-28T02:34:59;20.70;;;3.33;;
2225;SDS011;1119;48.288;8.726;2024-02-28T02:37:26;20.60;;;3.30;;
2225;SDS011;1119;48.288;8.726;2024-02-28T02:39:54;20.60;;;3.20;;
2225;SDS011;1119;48.288;8.726;2024-02-28T02:42:22;20.67;;;3.20;;
2225;SDS011;1119;48.288;8.726;2024-02-28T02:44:49;20.67;;;3.30;;
2225;SDS011;1119;48.288;8.726;2024-02-28T02:47:16;20.60;;;3.20;;
2225;SDS011;1119;48.288;8.726;2024-02-28T02:49:43;20.70;;;3.30;;
2225;SDS011;1119;48.288;8.726;2024-02-28T02:52:11;20.50;;;3.00;;
2225;SDS011;1119;48.288;8.726;2024-02-28T02:54:38;20.63;;;3.27;;
2225;SDS011;1119;48.288;8.726;2024-02-28T02:57:06;20.60;;;3.00;;
2225;SDS011;1119;48.288;8.726;2024-02-28T02:59:34;20.67;;;3.00;;
2225;SDS011;1119;48.288;8.726;2024-02-28T03:02:02;20.53;;;3.00;;
2225;SDS011;1119;48.288;8.726;2024-02-28T03:04:30;20.67;;;3.27;;
2225;SDS011;1119;48.288;8.726;2024-02-28T03:06:57;20.60;;;2.93;;
2225;SDS011;1119;48.288;8.726;2024-02-28T03:09:25;20.70;;;3.40;;
2225;SDS011;1119;48.288;8.726;2024-02-28T03:11:52;20.60;;;3.00;;
2225;SDS011;1119;48.288;8.726;2024-02-28T03:14:20;20.77;;;3.57;;
2225;SDS011;1119;48.288;8.726;2024-02-28T03:16:50;20.73;;;3.70;;
2225;SDS011;1119;48.288;8.726;2024-02-28T03:19:17;20.70;;;3.70;;
2225;SDS011;1119;48.288;8.726;2024-02-28T03:21:45;20.93;;;4.00;;
2225;SDS011;1119;48.288;8.726;2024-02-28T03:24:12;20.77;;;4.00;;
2225;SDS011;1119;48.288;8.726;2024-02-28T03:26:39;20.90;;;4.07;;
2225;SDS011;1119;48.288;8.726;2024-02-28T03:29:07;20.83;;;3.70;;
2225;SDS011;1119;48.288;8.726;2024-02-28T03:31:36;20.90;;;3.77;;
2225;SDS011;1119;48.288;8.726;2024-02-28T03:34:03;20.87;;;3.83;;
2225;SDS011;1119;48.288;8.726;2024-02-28T03:36:30;20.97;;;3.93;;
2225;SDS011;1119;48.288;8.726;2024-02-28T03:38:58;21.03;;;4.53;;
2225;SDS011;1119;48.288;8.726;2024-02-28T03:41:25;21.07;;;4.17;;
2225;SDS011;1119;48.288;8.726;2024-02-28T03:43:52;21.00;;;4.60;;
2225;SDS011;1119;48.288;8.726;2024-02-28T03:46:19;21.13;;;4.47;;
2225;SDS011;1119;48.288;8.726;2024-02-28T03:48:49;21.10;;;4.80;;
2225;SDS011;1119;48.288;8.726;2024-02-28T03:51:18;21.10;;;4.53;;
2225;SDS011;1119;48.288;8.726;2024-02-28T03:53:45;21.13;;;4.73;;
2225;SDS011;1119;48.288;8.726;2024-02-28T03:56:12;21.07;;;4.77;;
2225;SDS011;1119;48.288;8.726;2024-02-28T03:58:40;21.20;;;4.90;;
2225;SDS011;1119;48.288;8.726;2024-02-28T04:01:08;21.03;;;4.10;;
2225;SDS011;1119;48.288;8.726;2024-02-28T04:03:35;21.17;;;4.97;;
2225;SDS011;1119;48.288;8.726;2024-02-28T04:06:04;21.30;;;5.17;;
2225;SDS011;1119;48.288;8.726;2024-02-28T04:08:31;21.30;;;5.63;;
2225;SDS011;1119;48.288;8.726;2024-02-28T04:10:58;21.53;;;5.80;;
2225;SDS011;1119;48.288;8.726;2024-02-28T04:13:26;21.50;;;6.07;;
2225;SDS011;1119;48.288;8.726;2024-02-28T04:15:53;21.30;;;5.77;;
2225;SDS011;1119;48.288;8.726;2024-02-28T04:18:20;21.50;;;5.90;;
2225;SDS011;1119;48.288;8.726;2024-02-28T04:20:48;21.40;;;5.87;;
2225;SDS011;1119;48.288;8.726;2024-02-28T04:23:16;21.50;;;5.87;;
2225;SDS011;1119;48.288;8.726;2024-02-28T04:25:43;21.30;;;5.43;;
2225;SDS011;1119;48.288;8.726;2024-02-28T04:28:11;21.40;;;5.90;;
2225;SDS011;1119;48.288;8.726;2024-02-28T04:30:39;21.40;;;6.00;;
2225;SDS011;1119;48.288;8.726;2024-02-28T04:33:06;21.30;;;5.50;;
2225;SDS011;1119;48.288;8.726;2024-02-28T04:35:33;21.30;;;5.63;;
2225;SDS011;1119;48.288;8.726;2024-02-28T04:38:00;21.50;;;5.93;;
2225;SDS011;1119;48.288;8.726;2024-02-28T04:40:29;21.37;;;5.40;;
2225;SDS011;1119;48.288;8.726;2024-02-28T04:42:57;21.40;;;5.47;;
2225;SDS011;1119;48.288;8.726;2024-02-28T04:45:24;21.30;;;5.67;;
2225;SDS011;1119;48.288;8.726;2024-02-28T04:47:52;21.30;;;5.13;;
2225;SDS011;1119;48.288;8.726;2024-02-28T04:50:20;21.27;;;5.30;;
2225;SDS011;1119;48.288;8.726;2024-02-28T04:52:48;21.17;;;5.10;;
2225;SDS011;1119;48.288;8.726;2024-02-28T04:55:16;21.47;;;5.80;;
2225;SDS011;1119;48.288;8.726;2024-02-28T04:57:44;21.30;;;5.80;;
2225;SDS011;1119;48.288;8.726;2024-02-28T05:00:12;21.10;;;5.10;;
2225;SDS011;1119;48.288;8.726;2024-02-28T05:02:40;21.00;;;4.43;;
2225;SDS011;1119;48.288;8.726;2024-02-28T05:05:07;21.20;;;5.13;;
2225;SDS011;1119;48.288;8.726;2024-02-28T05:07:35;21.03;;;4.53;;
2225;SDS011;1119;48.288;8.726;2024-02-28T05:10:02;21.07;;;4.80;;
2225;SDS011;1119;48.288;8.726;2024-02-28T05:12:30;20.87;;;4.40;;
2225;SDS011;1119;48.288;8.726;2024-02-28T05:14:59;21.00;;;4.37;;
2225;SDS011;1119;48.288;8.726;2024-02-28T05:17:26;21.10;;;4.60;;
2225;SDS011;1119;48.288;8.726;2024-02-28T05:19:54;21.03;;;4.70;;
2225;SDS011;1119;48.288;8.726;2024-02-28T05:22:22;21.13;;;5.10;;
2225;SDS011;1119;48.288;8.726;2024-02-28T05:24:49;21.10;;;4.80;;
2225;SDS011;1119;48.288;8.726;2024-02-28T05:27:17;21.33;;;5.10;;
2225;SDS011;1119;48.288;8.726;2024-02-28T05:29:45;21.30;;;5.57;;
2225;SDS011;1119;48.288;8.726;2024-02-28T05:32:13;21.10;;;4.97;;
2225;SDS011;1119;48.288;8.726;2024-02-28T05:34:42;21.17;;;4.97;;
2225;SDS011;1119;48.288;8.726;2024-02-28T05:37:09;21.10;;;4.60;;
2225;SDS011;1119;48.288;8.726;2024-02-28T05:39:37;20.93;;;4.20;;
2225;SDS011;1119;48.288;8.726;2024-02-28T05:42:04;21.10;;;5.00;;
2225;SDS011;1119;48.288;8.726;2024-02-28T05:44:31;21.27;;;5.17;;
2225;SDS011;1119;48.288;8.726;2024-02-28T05:46:59;21.10;;;4.53;;
2225;SDS011;1119;48.288;8.726;2024-02-28T05:49:28;21.00;;;4.30;;
2225;SDS011;1119;48.288;8.726;2024-02-28T05:51:55;21.37;;;5.43;;
2225;SDS011;1119;48.288;8.726;2024-02-28T05:54:22;21.10;;;4.67;;
2225;SDS011;1119;48.288;8.726;2024-02-28T05:56:49;21.40;;;5.43;;
2225;SDS011;1119;48.288;8.726;2024-02-28T05:59:18;21.27;;;5.17;;
2225;SDS011;1119;48.288;8.726;2024-02-28T06:01:45;20.97;;;4.37;;
2225;SDS011;1119;48.288;8.726;2024-02-28T06:04:12;21.03;;;4.80;;
2225;SDS011;1119;48.288;8.726;2024-02-28T06:06:41;21.10;;;4.87;;
2225;SDS011;1119;48.288;8.726;2024-02-28T06:09:08;21.00;;;4.73;;
2225;SDS011;1119;48.288;8.726;2024-02-28T06:11:35;21.33;;;5.20;;
2225;SDS011;1119;48.288;8.726;2024-02-28T06:14:03;21.10;;;4.83;;
2225;SDS011;1119;48.288;8.726;2024-02-28T06:16:30;21.10;;;4.63;;
2225;SDS011;1119;48.288;8.726;2024-02-28T06:18:57;21.03;;;4.67;;
2225;SDS011;1119;48.288;8.726;2024-02-28T06:21:25;21.07;;;4.90;;
2225;SDS011;1119;48.288;8.726;2024-02-28T06:23:54;21.10;;;4.87;;
2225;SDS011;1119;48.288;8.726;2024-02-28T06:26:22;21.17;;;5.07;;
2225;SDS011;1119;48.288;8.726;2024-02-28T06:28:49;21.03;;;4.80;;
2225;SDS011;1119;48.288;8.726;2024-02-28T06:31:17;21.10;;;4.30;;
2225;SDS011;1119;48.288;8.726;2024-02-28T06:33:45;21.20;;;4.87;;
2225;SDS011;1119;48.288;8.726;2024-02-28T06:36:12;21.20;;;4.90;;
2225;SDS011;1119;48.288;8.726;2024-02-28T06:38:39;21.17;;;4.87;;
2225;SDS011;1119;48.288;8.726;2024-02-28T06:41:08;21.10;;;4.43;;
2225;SDS011;1119;48.288;8.726;2024-02-28T06:43:35;20.80;;;3.77;;
2225;SDS011;1119;48.288;8.726;2024-02-28T06:46:02;20.87;;;3.87;;
2225;SDS011;1119;48.288;8.726;2024-02-28T06:48:30;20.90;;;4.37;;
2225;SDS011;1119;48.288;8.726;2024-02-28T06:50:57;21.00;;;4.33;;
2225;SDS011;1119;48.288;8.726;2024-02-28T06:53:25;21.17;;;4.63;;
2225;SDS011;1119;48.288;8.726;2024-02-28T06:55:52;21.03;;;4.53;;
2225;SDS011;1119;48.288;8.726;2024-02-28T06:58:21;21.00;;;4.33;;
2225;SDS011;1119;48.288;8.726;2024-02-28T07:00:50;21.00;;;4.47;;
2225;SDS011;1119;48.288;8.726;2024-02-28T07:03:17;21.07;;;4.40;;
2225;SDS011;1119;48.288;8.726;2024-02-28T07:05:45;21.07;;;4.60;;
2225;SDS011;1119;48.288;8.726;2024-02-28T07:08:12;20.80;;;4.00;;
2225;SDS011;1119;48.288;8.726;2024-02-28T07:10:40;20.90;;;4.33;;
2225;SDS011;1119;48.288;8.726;2024-02-28T07:13:09;20.90;;;4.20;;
2225;SDS011;1119;48.288;8.726;2024-02-28T07:15:38;21.00;;;4.13;;
2225;SDS011;1119;48.288;8.726;2024-02-28T07:18:06;21.17;;;5.00;;
2225;SDS011;1119;48.288;8.726;2024-02-28T07:20:34;21.00;;;4.30;;
2225;SDS011;1119;48.288;8.726;2024-02-28T07:23:01;20.97;;;4.43;;
2225;SDS011;1119;48.288;8.726;2024-02-28T07:25:29;21.10;;;4.53;;
2225;SDS011;1119;48.288;8.726;2024-02-28T07:27:57;21.07;;;4.43;;
2225;SDS011;1119;48.288;8.726;2024-02-28T07:30:25;21.03;;;4.50;;
2225;SDS011;1119;48.288;8.726;2024-02-28T07:32:54;20.90;;;4.13;;
2225;SDS011;1119;48.288;8.726;2024-02-28T07:35:22;20.97;;;4.27;;
2225;SDS011;1119;48.288;8.726;2024-02-28T07:37:49;20.97;;;4.10;;
2225;SDS011;1119;48.288;8.726;2024-02-28T07:40:16;21.00;;;4.13;;
2225;SDS011;1119;48.288;8.726;2024-02-28T07:42:44;20.93;;;4.30;;
2225;SDS011;1119;48.288;8.726;2024-02-28T07:45:12;20.80;;;4.10;;
2225;SDS011;1119;48.288;8.726;2024-02-28T07:47:39;21.10;;;4.60;;
2225;SDS011;1119;48.288;8.726;2024-02-28T07:50:08;20.90;;;4.37;;
2225;SDS011;1119;48.288;8.726;2024-02-28T07:52:36;21.00;;;4.20;;
2225;SDS011;1119;48.288;8.726;2024-02-28T07:55:04;21.07;;;4.27;;
2225;SDS011;1119;48.288;8.726;2024-02-28T07:57:33;20.83;;;3.60;;
2225;SDS011;1119;48.288;8.726;2024-02-28T08:00:00;20.90;;;4.00;;
2225;SDS011;1119;48.288;8.726;2024-02-28T08:02:37;20.80;;;3.90;;
2225;SDS011;1119;48.288;8.726;2024-02-28T08:05:05;21.03;;;4.23;;
2225;SDS011;1119;48.288;8.726;2024-02-28T08:07:34;20.97;;;3.90;;
2225;SDS011;1119;48.288;8.726;2024-02-28T08:10:02;20.90;;;4.20;;
2225;SDS011;1119;48.288;8.726;2024-02-28T08:12:31;20.97;;;4.10;;
2225;SDS011;1119;48.288;8.726;2024-02-28T08:14:59;20.90;;;3.60;;
2225;SDS011;1119;48.288;8.726;2024-02-28T08:17:26;20.80;;;3.40;;
2225;SDS011;1119;48.288;8.726;2024-02-28T08:19:54;20.97;;;3.87;;
2225;SDS011;1119;48.288;8.726;2024-02-28T08:22:21;20.77;;;3.43;;
2225;SDS011;1119;48.288;8.726;2024-02-28T08:24:52;20.70;;;3.63;;
2225;SDS011;1119;48.288;8.726;2024-02-28T08:27:19;20.80;;;3.23;;
2225;SDS011;1119;48.288;8.726;2024-02-28T08:29:48;20.87;;;3.53;;
2225;SDS011;1119;48.288;8.726;2024-02-28T08:32:16;20.77;;;3.17;;
2225;SDS011;1119;48.288;8.726;2024-02-28T08:34:44;20.73;;;2.87;;
2225;SDS011;1119;48.288;8.726;2024-02-28T08:37:11;20.60;;;3.27;;
2225;SDS011;1119;48.288;8.726;2024-02-28T08:39:39;20.77;;;3.30;;
2225;SDS011;1119;48.288;8.726;2024-02-28T08:42:07;20.80;;;3.23;;
2225;SDS011;1119;48.288;8.726;2024-02-28T08:44:35;20.70;;;3.10;;
2225;SDS011;1119;48.288;8.726;2024-02-28T08:47:02;20.77;;;3.07;;
2225;SDS011;1119;48.288;8.726;2024-02-28T08:49:30;20.80;;;3.10;;
2225;SDS011;1119;48.288;8.726;2024-02-28T08:51:57;20.90;;;3.60;;
2225;SDS011;1119;48.288;8.726;2024-02-28T08:54:24;20.80;;;3.07;;
2225;SDS011;1119;48.288;8.726;2024-02-28T08:56:52;20.93;;;3.67;;
2225;SDS011;1119;48.288;8.726;2024-02-28T08:59:20;20.77;;;2.93;;
2225;SDS011;1119;48.288;8.726;2024-02-28T09:01:48;20.80;;;3.90;;
2225;SDS011;1119;48.288;8.726;2024-02-28T09:04:16;20.80;;;3.23;;
2225;SDS011;1119;48.288;8.726;2024-02-28T09:06:43;20.80;;;3.30;;
2225;SDS011;1119;48.288;8.726;2024-02-28T09:09:10;20.73;;;2.90;;
2225;SDS011;1119;48.288;8.726;2024-02-28T09:11:38;20.83;;;3.30;;
2225;SDS011;1119;48.288;8.726;2024-02-28T09:14:05;20.83;;;3.13;;
2225;SDS011;1119;48.288;8.726;2024-02-28T09:16:34;20.77;;;3.30;;
2225;SDS011;1119;48.288;8.726;2024-02-28T09:19:02;20.80;;;3.33;;
2225;SDS011;1119;48.288;8.726;2024-02-28T09:21:30;20.57;;;2.83;;
2225;SDS011;1119;48.288;8.726;2024-02-28T09:23:57;20.67;;;3.03;;
2225;SDS011;1119;48.288;8.726;2024-02-28T09:26:25;20.87;;;3.20;;
2225;SDS011;1119;48.288;8.726;2024-02-28T09:28:52;20.70;;;3.27;;
2225;SDS011;1119;48.288;8.726;2024-02-28T09:31:19;20.93;;;3.50;;
2225;SDS011;1119;48.288;8.726;2024-02-28T09:33:48;20.80;;;3.07;;
2225;SDS011;1119;48.288;8.726;2024-02-28T09:36:15;20.80;;;3.20;;
2225;SDS011;1119;48.288;8.726;2024-02-28T09:38:42;20.70;;;2.80;;
2225;SDS011;1119;48.288;8.726;2024-02-28T09:41:14;20.70;;;2.80;;
2225;SDS011;1119;48.288;8.726;2024-02-28T09:43:41;20.77;;;2.87;;
2225;SDS011;1119;48.288;8.726;2024-02-28T09:46:08;20.60;;;2.50;;
2225;SDS011;1119;48.288;8.726;2024-02-28T09:48:38;20.67;;;2.60;;
2225;SDS011;1119;48.288;8.726;2024-02-28T09:51:07;20.83;;;3.50;;
2225;SDS011;1119;48.288;8.726;2024-02-28T09:53:35;20.73;;;2.70;;
2225;SDS011;1119;48.288;8.726;2024-02-28T09:56:03;20.80;;;2.87;;
2225;SDS011;1119;48.288;8.726;2024-02-28T09:58:33;20.70;;;2.77;;
2225;SDS011;1119;48.288;8.726;2024-02-28T10:01:03;20.73;;;2.90;;
2225;SDS011;1119;48.288;8.726;2024-02-28T10:03:34;20.83;;;3.10;;
2225;SDS011;1119;48.288;8.726;2024-02-28T10:06:03;20.73;;;3.00;;
2225;SDS011;1119;48.288;8.726;2024-02-28T10:08:32;20.70;;;2.90;;
2225;SDS011;1119;48.288;8.726;2024-02-28T10:11:00;20.70;;;3.00;;
2225;SDS011;1119;48.288;8.726;2024-02-28T10:13:27;20.60;;;2.60;;
2225;SDS011;1119;48.288;8.726;2024-02-28T10:15:55;20.57;;;2.80;;
2225;SDS011;1119;48.288;8.726;2024-02-28T10:18:22;20.33;;;2.50;;
2225;SDS011;1119;48.288;8.726;2024-02-28T10:20:50;20.50;;;2.43;;
2225;SDS011;1119;48.288;8.726;2024-02-28T10:23:17;20.60;;;2.53;;
2225;SDS011;1119;48.288;8.726;2024-02-28T10:25:46;20.50;;;2.37;;
2225;SDS011;1119;48.288;8.726;2024-02-28T10:28:14;20.53;;;2.27;;
2225;SDS011;1119;48.288;8.726;2024-02-28T10:30:42;20.63;;;2.47;;
2225;SDS011;1119;48.288;8.726;2024-02-28T10:33:10;20.60;;;2.87;;
2225;SDS011;1119;48.288;8.726;2024-02-28T10:35:39;20.53;;;2.40;;
2225;SDS011;1119;48.288;8.726;2024-02-28T10:38:08;20.70;;;3.10;;
2225;SDS011;1119;48.288;8.726;2024-02-28T10:40:37;20.50;;;2.50;;
2225;SDS011;1119;48.288;8.726;2024-02-28T10:43:08;20.50;;;2.10;;
2225;SDS011;1119;48.288;8.726;2024-02-28T10:45:37;20.57;;;2.70;;
2225;SDS011;1119;48.288;8.726;2024-02-28T10:48:05;20.63;;;2.40;;
2225;SDS011;1119;48.288;8.726;2024-02-28T10:50:35;20.57;;;2.50;;
2225;SDS011;1119;48.288;8.726;2024-02-28T10:53:03;20.40;;;2.40;;
2225;SDS011;1119;48.288;8.726;2024-02-28T10:55:32;20.60;;;2.73;;
2225;SDS011;1119;48.288;8.726;2024-02-28T10:58:02;20.40;;;2.30;;
2225;SDS011;1119;48.288;8.726;2024-02-28T11:00:35;20.50;;;2.43;;
2225;SDS011;1119;48.288;8.726;2024-02-28T11:03:04;20.40;;;2.40;;
2225;SDS011;1119;48.288;8.726;2024-02-28T11:05:35;20.53;;;2.37;;
2225;SDS011;1119;48.288;8.726;2024-02-28T11:08:04;20.47;;;2.30;;
2225;SDS011;1119;48.288;8.726;2024-02-28T11:10:35;20.60;;;2.67;;
2225;SDS011;1119;48.288;8.726;2024-02-28T11:13:07;20.53;;;2.70;;
2225;SDS011;1119;48.288;8.726;2024-02-28T11:15:37;20.50;;;2.30;;
2225;SDS011;1119;48.288;8.726;2024-02-28T11:18:08;20.50;;;2.10;;
2225;SDS011;1119;48.288;8.726;2024-02-28T11:20:37;20.40;;;2.30;;
2225;SDS011;1119;48.288;8.726;2024-02-28T11:23:05;20.40;;;2.10;;
2225;SDS011;1119;48.288;8.726;2024-02-28T11:25:34;20.47;;;2.10;;
2225;SDS011;1119;48.288;8.726;2024-02-28T11:28:01;20.57;;;2.50;;
2225;SDS011;1119;48.288;8.726;2024-02-28T11:30:29;20.50;;;2.30;;
2225;SDS011;1119;48.288;8.726;2024-02-28T11:32:58;20.50;;;2.30;;
2225;SDS011;1119;48.288;8.726;2024-02-28T11:35:25;20.60;;;2.37;;
2225;SDS011;1119;48.288;8.726;2024-02-28T11:37:53;20.60;;;2.20;;
2225;SDS011;1119;48.288;8.726;2024-02-28T11:40:22;20.53;;;2.33;;
2225;SDS011;1119;48.288;8.726;2024-02-28T11:42:51;20.60;;;2.70;;
2225;SDS011;1119;48.288;8.726;2024-02-28T11:45:18;20.63;;;2.10;;
2225;SDS011;1119;48.288;8.726;2024-02-28T11:47:46;20.67;;;2.23;;
2225;SDS011;1119;48.288;8.726;2024-02-28T11:50:15;20.60;;;2.13;;
2225;SDS011;1119;48.288;8.726;2024-02-28T11:52:43;20.80;;;2.63;;
2225;SDS011;1119;48.288;8.726;2024-02-28T11:55:11;20.67;;;2.40;;
2225;SDS011;1119;48.288;8.726;2024-02-28T11:57:38;20.67;;;2.30;;
2225;SDS011;1119;48.288;8.726;2024-02-28T12:00:06;20.50;;;2.00;;
2225;SDS011;1119;48.288;8.726;2024-02-28T12:02:38;20.30;;;2.00;;
2225;SDS011;1119;48.288;8.726;2024-02-28T12:05:06;20.57;;;2.37;;
2225;SDS011;1119;48.288;8.726;2024-02-28T12:07:36;20.60;;;2.47;;
2225;SDS011;1119;48.288;8.726;2024-02-28T12:10:04;20.40;;;2.17;;
2225;SDS011;1119;48.288;8.726;2024-02-28T12:12:33;20.60;;;2.47;;
2225;SDS011;1119;48.288;8.726;2024-02-28T12:15:01;20.70;;;2.47;;
2225;SDS011;1119;48.288;8.726;2024-02-28T12:17:30;20.73;;;2.37;;
2225;SDS011;1119;48.288;8.726;2024-02-28T12:19:58;20.70;;;2.37;;
2225;SDS011;1119;48.288;8.726;2024-02-28T12:22:26;20.53;;;2.07;;
2225;SDS011;1119;48.288;8.726;2024-02-28T12:24:55;20.70;;;2.50;;
2225;SDS011;1119;48.288;8.726;2024-02-28T12:27:23;20.73;;;2.63;;
2225;SDS011;1119;48.288;8.726;2024-02-28T12:29:50;20.70;;;2.57;;
2225;SDS011;1119;48.288;8.726;2024-02-28T12:32:18;20.80;;;2.60;;
2225;SDS011;1119;48.288;8.726;2024-02-28T12:34:46;20.70;;;2.53;;
2225;SDS011;1119;48.288;8.726;2024-02-28T12:37:15;20.60;;;2.63;;
2225;SDS011;1119;48.288;8.726;2024-02-28T12:39:42;20.73;;;2.37;;
2225;SDS011;1119;48.288;8.726;2024-02-28T12:42:10;20.67;;;2.13;;
2225;SDS011;1119;48.288;8.726;2024-02-28T12:44:38;20.53;;;2.40;;
2225;SDS011;1119;48.288;8.726;2024-02-28T12:47:11;20.50;;;2.17;;
2225;SDS011;1119;48.288;8.726;2024-02-28T12:49:38;20.57;;;2.20;;
2225;SDS011;1119;48.288;8.726;2024-02-28T12:52:06;20.50;;;2.23;;
2225;SDS011;1119;48.288;8.726;2024-02-28T12:54:33;20.70;;;2.50;;
2225;SDS011;1119;48.288;8.726;2024-02-28T12:57:01;20.70;;;2.40;;
2225;SDS011;1119;48.288;8.726;2024-02-28T12:59:32;20.70;;;2.50;;
2225;SDS011;1119;48.288;8.726;2024-02-28T13:02:00;20.63;;;2.30;;
2225;SDS011;1119;48.288;8.726;2024-02-28T13:04:28;20.70;;;2.50;;
2225;SDS011;1119;48.288;8.726;2024-02-28T13:06:55;20.63;;;2.50;;
2225;SDS011;1119;48.288;8.726;2024-02-28T13:09:23;20.60;;;2.43;;
2225;SDS011;1119;48.288;8.726;2024-02-28T13:11:50;20.53;;;2.33;;
2225;SDS011;1119;48.288;8.726;2024-02-28T13:14:17;20.63;;;2.33;;
2225;SDS011;1119;48.288;8.726;2024-02-28T13:16:46;20.57;;;2.27;;
2225;SDS011;1119;48.288;8.726;2024-02-28T13:19:14;20.70;;;2.40;;
2225;SDS011;1119;48.288;8.726;2024-02-28T13:21:41;20.57;;;2.40;;
2225;SDS011;1119;48.288;8.726;2024-02-28T13:24:09;20.67;;;2.47;;
2225;SDS011;1119;48.288;8.726;2024-02-28T13:26:38;20.63;;;2.50;;
2225;SDS011;1119;48.288;8.726;2024-02-28T13:29:05;20.50;;;2.13;;
2225;SDS011;1119;48.288;8.726;2024-02-28T13:31:33;20.67;;;2.50;;
2225;SDS011;1119;48.288;8.726;2024-02-28T13:34:02;20.67;;;2.23;;
2225;SDS011;1119;48.288;8.726;2024-02-28T13:36:29;20.60;;;2.37;;
2225;SDS011;1119;48.288;8.726;2024-02-28T13:38:57;20.60;;;2.50;;
2225;SDS011;1119;48.288;8.726;2024-02-28T13:41:25;20.60;;;2.50;;
2225;SDS011;1119;48.288;8.726;2024-02-28T13:43:52;20.60;;;2.50;;
2225;SDS011;1119;48.288;8.726;2024-02-28T13:46:19;20.70;;;2.63;;
2225;SDS011;1119;48.288;8.726;2024-02-28T13:48:46;20.60;;;2.20;;
2225;SDS011;1119;48.288;8.726;2024-02-28T13:51:15;20.60;;;2.60;;
2225;SDS011;1119;48.288;8.726;2024-02-28T13:53:43;20.50;;;2.17;;
2225;SDS011;1119;48.288;8.726;2024-02-28T13:56:10;20.67;;;2.53;;
2225;SDS011;1119;48.288;8.726;2024-02-28T13:58:37;20.70;;;2.77;;
2225;SDS011;1119;48.288;8.726;2024-02-28T14:01:05;20.57;;;2.53;;
2225;SDS011;1119;48.288;8.726;2024-02-28T14:03:33;20.60;;;2.27;;
2225;SDS011;1119;48.288;8.726;2024-02-28T14:06:00;20.63;;;2.50;;
2225;SDS011;1119;48.288;8.726;2024-02-28T14:08:29;20.40;;;2.10;;
2225;SDS011;1119;48.288;8.726;2024-02-28T14:10:57;20.60;;;2.60;;
2225;SDS011;1119;48.288;8.726;2024-02-28T14:13:24;20.50;;;2.40;;
2225;SDS011;1119;48.288;8.726;2024-02-28T14:15:52;20.60;;;2.63;;
2225;SDS011;1119;48.288;8.726;2024-02-28T14:18:20;20.60;;;2.30;;
2225;SDS011;1119;48.288;8.726;2024-02-28T14:20:47;20.60;;;2.63;;
2225;SDS011;1119;48.288;8.726;2024-02-28T14:23:15;20.60;;;2.70;;
2225;SDS011;1119;48.288;8.726;2024-02-28T14:25:44;20.67;;;2.60;;
2225;SDS011;1119;48.288;8.726;2024-02-28T14:28:12;20.50;;;2.50;;
2225;SDS011;1119;48.288;8.726;2024-02-28T14:30:39;20.57;;;2.40;;
2225;SDS011;1119;48.288;8.726;2024-02-28T14:33:08;20.57;;;2.30;;
2225;SDS011;1119;48.288;8.726;2024-02-28T14:35:35;20.60;;;2.37;;
2225;SDS011;1119;48.288;8.726;2024-02-28T14:38:04;20.50;;;2.30;;
2225;SDS011;1119;48.288;8.726;2024-02-28T14:40:33;20.50;;;2.47;;
2225;SDS011;1119;48.288;8.726;2024-02-28T14:43:01;20.53;;;2.10;;
2225;SDS011;1119;48.288;8.726;2024-02-28T14:45:29;20.50;;;2.40;;
2225;SDS011;1119;48.288;8.726;2024-02-28T14:47:57;20.70;;;2.60;;
2225;SDS011;1119;48.288;8.726;2024-02-28T14:50:25;20.60;;;2.70;;
2225;SDS011;1119;48.288;8.726;2024-02-28T14:52:52;20.60;;;2.70;;
2225;SDS011;1119;48.288;8.726;2024-02-28T14:55:20;20.60;;;2.80;;
2225;SDS011;1119;48.288;8.726;2024-02-28T14:57:48;20.60;;;2.57;;
2225;SDS011;1119;48.288;8.726;2024-02-28T15:00:18;20.40;;;2.43;;
2225;SDS011;1119;48.288;8.726;2024-02-28T15:02:46;20.63;;;2.50;;
2225;SDS011;1119;48.288;8.726;2024-02-28T15:05:13;20.57;;;2.40;;